Meteo Giornale » Osservazioni meteo Italia » Roma Fiumicino

ore: 19:50 - Osservazioni Meteo Roma Fiumicino
Lat. 41° 48' N Lon. 12° 14' E Alt. 2 metri s.l.m.

sereno Europe/Rome

16 °C

Sereno

Temp. 24 Ore

7 °C

19 °C

Sud

14.8 Km/h

Dew point 11 °C

Umidità 72 %

Visibilità  10 Km

Il sole sorge alle ore 06:13

Il sole tramonta alle ore 20:04

Data e Ora Cielo e Fenomeni T °C DP °C Um. % Pres. hPa Vis. km Vento km/h
Oggi h: 19:50 sereno Sereno 16 11 72 1015 10 S 14.8
Oggi h: 19:20 sereno Sereno 17 11 67 1015 10 S 14.8
Oggi h: 18:50 sereno Sereno 17 10 63 1015 10 S 16.7
Oggi h: 18:20 sereno Sereno 18 10 59 1015 10 S 18.5
Oggi h: 17:50 sereno Sereno 18 11 63 1015 10 S 18.5
Oggi h: 17:20 sereno Sereno 18 10 59 1015 10 S 20.3
Oggi h: 16:50 sereno Sereno 18 10 59 1016 10 S 22.2
Oggi h: 16:20 sereno Sereno 19 9 52 1016 10 S 22.2
Oggi h: 15:50 sereno Sereno 19 10 55 1016 10 S 22.2
Oggi h: 15:20 sereno Sereno 19 10 55 1016 10 S 22.2
Oggi h: 14:50 sereno Sereno 19 10 55 1017 10 S/SO 24
Oggi h: 14:20 sereno Sereno 19 8 48 1017 10 S 22.2
Oggi h: 13:50 poco_nuvoloso Poco Nuvoloso 19 9 52 1017 10 S 20.3
Oggi h: 13:20 poco_nuvoloso Poco Nuvoloso 19 9 52 1017 10 S 20.3
Oggi h: 12:50 poco_nuvoloso Poco Nuvoloso 19 9 52 1017 10 S 22.2
Oggi h: 12:20 poco_nuvoloso Poco Nuvoloso 18 10 59 1018 10 S 20.3
Oggi h: 11:50 poco_nuvoloso Poco Nuvoloso 19 11 59 1018 10 S 20.3
Oggi h: 11:20 poco_nuvoloso Poco Nuvoloso 18 11 63 1018 10 S 20.3
Oggi h: 10:50 poco_nuvoloso Poco Nuvoloso 17 10 63 1018 10 S/SE 20.3
Oggi h: 10:20 poco_nuvoloso Poco Nuvoloso 17 10 63 1018 10 S 20.3
Oggi h: 09:50 poco_nuvoloso Poco Nuvoloso 17 10 63 1018 10 S 14.8
Oggi h: 09:20 sereno Sereno 16 11 72 1018 10 S/SE 11.1
Oggi h: 08:50 sereno Sereno 15 10 72 1018 10 E 7.4
Oggi h: 08:20 sereno Sereno 12 9 81 1018 10 E 11.1
Oggi h: 07:50 sereno Sereno 11 8 81 1017 10 E 9.3
Oggi h: 07:20 sereno Sereno 10 8 87 1017 8 E 9.3
Oggi h: 06:50 sereno Sereno 8 7 93 1017 6 E 7.4
Oggi h: 06:20 sereno Sereno 7 6 93 1017 7 E 7.4
Oggi h: 05:50 sereno Sereno 7 6 93 1017 7 E 11.1
Oggi h: 05:20 sereno Sereno 7 6 93 1017 7 E 9.3
Oggi h: 04:50 sereno Sereno 8 7 93 1017 7 E 11.1
Oggi h: 04:20 sereno Sereno 8 7 93 1017 7 E 9.3
Oggi h: 03:50 sereno Sereno 8 7 93 1017 7 E 9.3
Oggi h: 03:20 sereno Sereno 8 7 93 1018 8 E 7.4
Oggi h: 02:50 sereno Sereno 9 8 93 1018 8 E 7.4
Oggi h: 02:20 sereno Sereno 9 8 93 1018 8 E 9.3
Oggi h: 01:50 sereno Sereno 10 8 87 1018 10 E 9.3
Oggi h: 01:20 sereno Sereno 10 9 93 1019 10 E 7.4
Oggi h: 00:50 sereno Sereno 10 8 87 1019 10 E 7.4
Oggi h: 00:20 sereno Sereno 11 9 87 1019 10 E 7.4
Ieri h: 23:50 sereno Sereno 11 9 87 1019 10 E 7.4
Ieri h: 23:20 sereno Sereno 12 10 87 1019 10 E 7.4
Ieri h: 22:50 sereno Sereno 12 9 81 1019 10 N 1.8
Ieri h: 22:20 sereno Sereno 15 11 76 1019 10 N 5.5
Ieri h: 21:50 sereno Sereno 15 11 76 1019 10 N 5.5
Ieri h: 21:20 poco_nuvoloso Poco Nuvoloso 15 11 76 1019 10 S 7.4
Ieri h: 20:50 poco_nuvoloso Poco Nuvoloso 15 11 76 1019 10 S 7.4